createdAt,value
2023-04-22T00:00:06.946Z,90.1306
2023-04-22T00:01:07.215Z,90.1684
2023-04-22T00:02:07.702Z,90.4344
2023-04-22T00:03:08.333Z,90.4574
2023-04-22T00:04:09.835Z,90.4602
2023-04-22T00:05:10.814Z,90.7766
2023-04-22T00:06:11.168Z,90.6745
2023-04-22T00:07:11.467Z,90.7726
2023-04-22T00:08:12.041Z,90.6852
2023-04-22T00:09:12.491Z,90.9548
2023-04-22T00:10:12.801Z,90.4220
2023-04-22T00:11:13.181Z,90.1085
2023-04-22T00:12:13.492Z,90.7536
2023-04-22T00:13:13.823Z,90.2738
2023-04-22T00:14:14.152Z,90.7749
2023-04-22T00:15:14.565Z,90.7438
2023-04-22T00:16:14.981Z,90.4701
2023-04-22T00:17:15.398Z,90.1321
2023-04-22T00:18:15.710Z,89.7876
2023-04-22T00:19:16.050Z,89.7899
2023-04-22T00:20:16.390Z,89.5961
2023-04-22T00:21:16.680Z,89.2639
2023-04-22T00:22:16.972Z,88.8837
2023-04-22T00:23:17.335Z,88.6398
2023-04-22T00:24:17.627Z,88.5168
2023-04-22T00:25:17.989Z,88.2656
2023-04-22T00:26:18.275Z,88.3743
2023-04-22T00:27:18.571Z,88.6139
2023-04-22T00:28:18.993Z,88.7028
2023-04-22T00:29:19.258Z,88.7583
2023-04-22T00:30:19.556Z,88.3383
2023-04-22T00:31:19.879Z,89.3408
2023-04-22T00:32:20.158Z,89.7998
2023-04-22T00:33:20.490Z,89.5282
2023-04-22T00:34:20.821Z,89.6263
2023-04-22T00:35:21.179Z,88.7958
2023-04-22T00:36:21.511Z,88.8483
2023-04-22T00:37:21.837Z,88.7999
2023-04-22T00:38:22.210Z,88.9378
2023-04-22T00:39:22.622Z,89.1180
2023-04-22T00:40:22.958Z,89.3197
2023-04-22T00:41:23.237Z,89.3061
2023-04-22T00:42:23.574Z,89.3489
2023-04-22T00:43:23.939Z,89.5449
2023-04-22T00:44:24.259Z,89.6134
2023-04-22T00:45:24.557Z,89.9430
2023-04-22T00:46:24.906Z,89.9573
2023-04-22T00:47:25.318Z,90.5728
2023-04-22T00:48:29.152Z,90.3144
2023-04-22T00:49:27.129Z,90.2363
2023-04-22T00:50:27.539Z,90.2995
2023-04-22T00:51:27.858Z,89.9136
2023-04-22T00:52:28.182Z,90.1883
2023-04-22T00:53:28.513Z,90.3262
2023-04-22T00:54:28.794Z,90.3898
2023-04-22T00:55:29.095Z,89.9794
2023-04-22T00:56:29.429Z,89.5692
2023-04-22T00:57:29.707Z,90.1188
2023-04-22T00:58:30.187Z,90.8144
2023-04-22T00:59:30.505Z,91.4159
2023-04-22T01:00:30.942Z,91.4314
2023-04-22T01:01:31.444Z,92.0468
2023-04-22T01:02:32.641Z,92.4460
2023-04-22T01:03:33.708Z,92.2056
2023-04-22T01:04:34.428Z,92.4595
2023-04-22T01:05:34.798Z,92.6735
2023-04-22T01:06:35.332Z,93.9861
2023-04-22T01:07:35.671Z,94.0227
2023-04-22T01:08:36.107Z,94.3095
2023-04-22T01:09:36.482Z,94.3794
2023-04-22T01:10:36.808Z,94.1425
2023-04-22T01:11:37.213Z,93.8380
2023-04-22T01:12:37.543Z,93.8903
2023-04-22T01:13:37.819Z,94.2375
2023-04-22T01:14:38.179Z,94.5537
2023-04-22T01:15:38.494Z,94.4216
2023-04-22T01:16:38.993Z,93.8612
2023-04-22T01:17:39.409Z,93.3889
2023-04-22T01:18:39.686Z,93.0361
2023-04-22T01:19:41.380Z,93.2460
2023-04-22T01:20:42.291Z,92.7462
2023-04-22T01:21:42.648Z,91.8984
2023-04-22T01:22:42.970Z,91.4041
2023-04-22T01:23:43.350Z,91.1769
2023-04-22T01:24:43.765Z,91.1404
2023-04-22T01:25:44.064Z,91.0096
2023-04-22T01:26:44.389Z,91.2455
2023-04-22T01:27:44.748Z,91.2331
2023-04-22T01:28:45.133Z,91.2844
2023-04-22T01:29:45.457Z,91.9372
2023-04-22T01:30:45.951Z,91.9218
2023-04-22T01:31:46.397Z,92.3906
2023-04-22T01:32:46.728Z,92.5634
2023-04-22T01:33:47.045Z,91.9953
2023-04-22T01:34:47.364Z,91.6716
2023-04-22T01:35:47.739Z,91.6860
2023-04-22T01:36:48.089Z,91.8258
2023-04-22T01:37:48.399Z,91.7706
2023-04-22T01:38:48.798Z,91.9537
2023-04-22T01:39:49.138Z,92.4887
2023-04-22T01:40:49.480Z,93.0010
2023-04-22T01:41:49.826Z,92.4821
2023-04-22T01:42:50.129Z,92.2781
2023-04-22T01:43:50.493Z,92.2930
2023-04-22T01:44:50.825Z,91.9830
2023-04-22T01:45:51.235Z,92.2772
2023-04-22T01:46:51.575Z,92.4326
2023-04-22T01:47:52.026Z,92.3455
2023-04-22T01:48:52.370Z,91.8774
2023-04-22T01:49:52.700Z,91.5296
2023-04-22T01:50:53.067Z,91.8368
2023-04-22T01:51:53.401Z,91.4785
2023-04-22T01:52:53.736Z,91.8046
2023-04-22T01:53:54.098Z,91.7551
2023-04-22T01:54:54.372Z,91.6341
2023-04-22T01:55:54.740Z,91.4838
2023-04-22T01:56:55.103Z,91.4514
2023-04-22T01:57:55.400Z,91.4552
2023-04-22T01:58:55.788Z,91.7318
2023-04-22T01:59:56.186Z,92.2974
2023-04-22T02:00:56.505Z,92.0392
2023-04-22T02:01:56.983Z,91.9772
2023-04-22T02:02:57.573Z,92.3606
2023-04-22T02:03:57.977Z,93.2553
2023-04-22T02:04:58.569Z,93.0939
2023-04-22T02:05:58.863Z,93.0402
2023-04-22T02:06:59.266Z,93.2398
2023-04-22T02:07:59.654Z,93.9029
2023-04-22T02:08:59.970Z,94.0927
2023-04-22T02:10:00.310Z,93.9732
2023-04-22T02:11:00.698Z,93.9905
2023-04-22T02:12:01.149Z,93.9287
2023-04-22T02:13:01.466Z,93.9625
2023-04-22T02:14:01.839Z,93.8207
2023-04-22T02:15:02.194Z,93.2337
2023-04-22T02:16:02.598Z,93.7931
2023-04-22T02:17:02.876Z,94.8384
2023-04-22T02:18:03.283Z,95.3572
2023-04-22T02:19:03.744Z,95.4540
2023-04-22T02:20:04.238Z,95.3979
2023-04-22T02:21:04.645Z,95.3780
2023-04-22T02:22:04.986Z,95.6484
2023-04-22T02:23:05.342Z,96.2303
2023-04-22T02:24:05.733Z,96.3373
2023-04-22T02:25:06.117Z,96.3252
2023-04-22T02:26:06.538Z,96.0438
2023-04-22T02:27:06.977Z,95.5101
2023-04-22T02:28:07.402Z,95.4919
2023-04-22T02:29:07.781Z,95.6464
2023-04-22T02:30:08.159Z,95.9579
2023-04-22T02:31:08.724Z,95.8718
2023-04-22T02:32:09.123Z,95.4766
2023-04-22T02:33:09.635Z,95.2972
2023-04-22T02:34:09.960Z,95.0886
2023-04-22T02:35:10.336Z,95.0607
2023-04-22T02:36:10.807Z,94.7654
2023-04-22T02:37:11.230Z,94.8607
2023-04-22T02:38:11.627Z,95.3174
2023-04-22T02:39:12.035Z,94.9586
2023-04-22T02:40:12.393Z,94.5038
2023-04-22T02:41:12.729Z,93.5153
2023-04-22T02:42:13.108Z,94.0626
2023-04-22T02:43:13.501Z,94.5508
2023-04-22T02:44:13.971Z,94.5852
2023-04-22T02:45:14.393Z,94.8459
2023-04-22T02:46:15.891Z,95.1775
2023-04-22T02:47:16.227Z,95.1966
2023-04-22T02:48:16.649Z,95.5114
2023-04-22T02:49:17.042Z,95.6985
2023-04-22T02:50:17.451Z,95.8802
2023-04-22T02:51:17.827Z,95.9403
2023-04-22T02:52:18.248Z,95.9040
2023-04-22T02:53:18.598Z,96.1029
2023-04-22T02:54:18.984Z,96.3369
2023-04-22T02:55:19.364Z,96.6276
2023-04-22T02:56:19.779Z,96.7254
2023-04-22T02:57:20.134Z,96.7530
2023-04-22T02:58:20.569Z,96.7387
2023-04-22T02:59:20.964Z,96.5134
2023-04-22T03:00:21.401Z,96.2770
2023-04-22T03:01:21.887Z,96.3369
2023-04-22T03:02:22.525Z,96.1344
2023-04-22T03:03:23.510Z,95.7507
2023-04-22T03:04:24.674Z,95.5467
2023-04-22T03:05:25.184Z,95.6997
2023-04-22T03:06:25.580Z,95.6913
2023-04-22T03:07:25.964Z,95.5153
2023-04-22T03:08:26.336Z,95.4804
2023-04-22T03:09:26.742Z,95.6222
2023-04-22T03:10:27.158Z,95.8266
2023-04-22T03:11:27.563Z,95.8544
2023-04-22T03:12:27.924Z,96.2356
2023-04-22T03:13:28.377Z,96.2451
2023-04-22T03:14:28.810Z,96.3173
2023-04-22T03:15:29.254Z,96.4714
2023-04-22T03:16:29.651Z,96.4197
2023-04-22T03:17:30.030Z,96.5480
2023-04-22T03:18:30.455Z,96.4695
2023-04-22T03:19:30.887Z,96.5375
2023-04-22T03:20:31.275Z,96.5180
2023-04-22T03:21:31.640Z,96.6304
2023-04-22T03:22:32.050Z,96.4183
2023-04-22T03:23:32.442Z,95.3684
2023-04-22T03:24:32.931Z,95.1568
2023-04-22T03:25:33.318Z,95.1359
2023-04-22T03:26:33.760Z,95.1842
2023-04-22T03:27:34.186Z,95.4317
2023-04-22T03:28:34.732Z,95.5370
2023-04-22T03:29:35.112Z,95.4890
2023-04-22T03:30:35.567Z,94.9659
2023-04-22T03:31:36.084Z,94.7940
2023-04-22T03:32:36.589Z,95.0959
2023-04-22T03:33:36.991Z,95.1022
2023-04-22T03:34:37.845Z,95.1031
2023-04-22T03:35:38.334Z,95.0163
2023-04-22T03:36:38.847Z,94.9216
2023-04-22T03:37:39.311Z,94.7567
2023-04-22T03:38:39.712Z,94.6636
2023-04-22T03:39:40.673Z,94.8080
2023-04-22T03:40:41.335Z,94.9356
2023-04-22T03:41:41.714Z,95.2241
2023-04-22T03:42:42.140Z,95.3127
2023-04-22T03:43:42.727Z,95.2435
2023-04-22T03:44:43.153Z,94.7341
2023-04-22T03:45:43.642Z,94.6241
2023-04-22T03:46:44.558Z,94.8206
2023-04-22T03:47:45.289Z,94.7641
2023-04-22T03:48:45.617Z,94.6910
2023-04-22T03:49:46.066Z,94.4276
2023-04-22T03:50:46.437Z,94.4287
2023-04-22T03:51:46.890Z,94.3280
2023-04-22T03:52:47.330Z,94.1906
2023-04-22T03:53:47.710Z,94.5333
2023-04-22T03:54:48.125Z,94.5739
2023-04-22T03:55:48.536Z,94.6564
2023-04-22T03:56:48.913Z,94.8191
2023-04-22T03:57:49.302Z,94.4287
2023-04-22T03:58:49.788Z,94.4407
2023-04-22T03:59:50.200Z,94.3634
2023-04-22T04:00:50.669Z,94.6253
2023-04-22T04:01:51.037Z,95.0902
2023-04-22T04:02:51.759Z,95.3509
2023-04-22T04:03:52.896Z,95.5958
2023-04-22T04:04:54.300Z,95.6533
2023-04-22T04:05:55.212Z,95.4789
2023-04-22T04:06:56.049Z,95.6870
2023-04-22T04:07:56.432Z,96.0050
2023-04-22T04:08:56.782Z,96.0618
2023-04-22T04:09:57.224Z,96.1732
2023-04-22T04:10:57.617Z,96.2235
2023-04-22T04:11:58.048Z,96.3367
2023-04-22T04:12:58.415Z,96.6701
2023-04-22T04:13:58.858Z,96.8026
2023-04-22T04:14:59.281Z,96.7106
2023-04-22T04:15:59.754Z,96.6074
2023-04-22T04:17:00.212Z,96.5482
2023-04-22T04:18:00.814Z,96.5103
2023-04-22T04:19:01.266Z,96.4808
2023-04-22T04:20:01.685Z,96.2596
2023-04-22T04:21:02.085Z,96.3294
2023-04-22T04:22:02.513Z,96.5076
2023-04-22T04:23:02.942Z,96.6242
2023-04-22T04:24:03.350Z,96.7923
2023-04-22T04:25:03.783Z,96.7353
2023-04-22T04:26:04.146Z,96.8300
2023-04-22T04:27:04.589Z,96.8444
2023-04-22T04:28:05.005Z,96.6599
2023-04-22T04:29:05.351Z,96.5938
2023-04-22T04:30:05.819Z,96.5576
2023-04-22T04:31:06.343Z,96.1814
2023-04-22T04:32:06.710Z,94.9041
2023-04-22T04:33:07.726Z,94.3341
2023-04-22T04:34:08.309Z,94.0639
2023-04-22T04:35:08.751Z,93.6742
2023-04-22T04:36:09.152Z,93.4260
2023-04-22T04:37:09.538Z,93.2606
2023-04-22T04:38:09.991Z,93.2931
2023-04-22T04:39:10.360Z,93.1603
2023-04-22T04:40:10.789Z,92.9828
2023-04-22T04:41:11.242Z,93.2647
2023-04-22T04:42:11.656Z,93.7131
2023-04-22T04:43:12.150Z,93.3966
2023-04-22T04:44:13.947Z,92.5816
2023-04-22T04:45:14.377Z,92.6719
2023-04-22T04:46:14.872Z,93.2026
2023-04-22T04:47:15.214Z,93.1164
2023-04-22T04:48:15.651Z,93.4447
2023-04-22T04:49:16.141Z,93.2950
2023-04-22T04:50:16.515Z,92.6730
2023-04-22T04:51:20.706Z,92.9144
2023-04-22T04:52:18.796Z,93.1256
2023-04-22T04:53:19.176Z,93.0018
2023-04-22T04:54:19.605Z,93.4363
2023-04-22T04:55:20.011Z,93.6890
2023-04-22T04:56:20.459Z,94.1878
2023-04-22T04:57:20.844Z,94.2430
2023-04-22T04:58:21.242Z,94.3846
2023-04-22T04:59:21.636Z,94.3207
2023-04-22T05:00:22.106Z,93.8056
2023-04-22T05:01:22.632Z,93.3972
2023-04-22T05:02:23.808Z,93.7305
2023-04-22T05:03:25.175Z,93.7803
2023-04-22T05:04:26.418Z,94.0947
2023-04-22T05:05:27.264Z,94.2547
2023-04-22T05:06:27.639Z,94.3432
2023-04-22T05:07:28.118Z,93.7439
2023-04-22T05:08:28.504Z,94.0849
2023-04-22T05:09:28.938Z,94.0131
2023-04-22T05:10:29.316Z,94.0486
2023-04-22T05:11:29.663Z,94.1721
2023-04-22T05:12:30.088Z,94.5284
2023-04-22T05:13:30.491Z,94.7587
2023-04-22T05:14:30.905Z,94.0252
2023-04-22T05:15:31.290Z,94.1794
2023-04-22T05:16:31.771Z,94.2468
2023-04-22T05:17:32.319Z,94.1866
2023-04-22T05:18:32.684Z,94.1116
2023-04-22T05:19:33.125Z,94.3216
2023-04-22T05:20:36.453Z,94.7996
2023-04-22T05:21:34.425Z,95.0462
2023-04-22T05:22:34.888Z,95.3953
2023-04-22T05:23:35.251Z,95.6083
2023-04-22T05:24:35.640Z,95.7672
2023-04-22T05:25:36.023Z,96.0101
2023-04-22T05:26:36.378Z,96.2657
2023-04-22T05:27:36.755Z,96.5521
2023-04-22T05:28:37.166Z,97.0226
2023-04-22T05:29:37.780Z,97.1466
2023-04-22T05:30:38.461Z,97.3429
2023-04-22T05:31:38.915Z,97.4635
2023-04-22T05:32:39.403Z,97.3625
2023-04-22T05:33:39.811Z,97.1921
2023-04-22T05:34:40.194Z,96.9722
2023-04-22T05:35:40.639Z,96.7975
2023-04-22T05:36:41.124Z,96.2803
2023-04-22T05:37:41.462Z,95.9318
2023-04-22T05:38:41.878Z,95.6356
2023-04-22T05:39:42.734Z,95.5160
2023-04-22T05:40:43.153Z,95.4633
2023-04-22T05:41:47.371Z,95.5114
2023-04-22T05:42:45.375Z,95.6396
2023-04-22T05:43:45.734Z,95.7145
2023-04-22T05:44:46.112Z,95.4093
2023-04-22T05:45:46.614Z,95.2645
2023-04-22T05:46:47.076Z,95.4269
2023-04-22T05:47:47.646Z,95.4511
2023-04-22T05:48:47.996Z,95.4356
2023-04-22T05:49:48.417Z,95.7223
2023-04-22T05:50:48.841Z,95.9792
2023-04-22T05:51:49.248Z,96.1226
2023-04-22T05:52:49.667Z,96.0847
2023-04-22T05:53:50.046Z,96.1006
2023-04-22T05:54:50.474Z,96.1198
2023-04-22T05:55:50.934Z,95.6166
2023-04-22T05:56:51.405Z,95.6523
2023-04-22T05:57:51.852Z,95.5203
2023-04-22T05:58:52.270Z,95.5945
2023-04-22T05:59:52.706Z,95.4530
2023-04-22T06:00:53.069Z,95.5592
2023-04-22T06:01:53.516Z,95.7386
2023-04-22T06:02:54.275Z,95.5409
2023-04-22T06:03:55.124Z,95.5539
2023-04-22T06:04:57.337Z,95.5668
2023-04-22T06:05:56.343Z,95.5514
2023-04-22T06:06:57.842Z,95.4310
2023-04-22T06:07:58.196Z,95.4545
2023-04-22T06:08:58.560Z,95.5640
2023-04-22T06:10:05.561Z,95.5771
2023-04-22T06:10:58.987Z,95.4023
2023-04-22T06:11:59.308Z,95.3931
2023-04-22T06:12:59.672Z,95.3783
2023-04-22T06:14:00.069Z,95.3085
2023-04-22T06:15:00.440Z,95.3580
2023-04-22T06:16:00.803Z,95.2187
2023-04-22T06:17:01.205Z,95.6432
2023-04-22T06:18:01.588Z,95.5724
2023-04-22T06:19:01.970Z,95.4803
2023-04-22T06:20:02.277Z,95.1234
2023-04-22T06:21:02.612Z,94.5749
2023-04-22T06:22:02.894Z,94.3717
2023-04-22T06:23:03.273Z,94.4195
2023-04-22T06:24:03.639Z,94.2951
2023-04-22T06:25:03.935Z,94.1543
2023-04-22T06:26:04.301Z,94.0138
2023-04-22T06:27:04.729Z,93.8859
2023-04-22T06:28:05.059Z,93.5067
2023-04-22T06:29:05.389Z,93.2360
2023-04-22T06:30:05.782Z,92.9431
2023-04-22T06:31:06.117Z,92.7308
2023-04-22T06:32:06.487Z,92.3862
2023-04-22T06:33:06.875Z,92.5090
2023-04-22T06:34:07.240Z,92.4948
2023-04-22T06:35:07.549Z,92.5682
2023-04-22T06:36:07.943Z,92.2217
2023-04-22T06:37:08.241Z,91.7187
2023-04-22T06:38:08.540Z,91.5849
2023-04-22T06:39:08.879Z,91.4673
2023-04-22T06:40:09.235Z,91.1189
2023-04-22T06:41:09.619Z,91.0140
2023-04-22T06:42:10.035Z,90.9865
2023-04-22T06:43:10.397Z,91.0749
2023-04-22T06:44:10.692Z,91.1180
2023-04-22T06:45:11.140Z,91.0189
2023-04-22T06:46:11.438Z,90.8584
2023-04-22T06:47:11.803Z,90.7711
2023-04-22T06:48:12.138Z,90.7100
2023-04-22T06:49:12.453Z,90.6899
2023-04-22T06:50:12.818Z,90.2917
2023-04-22T06:51:13.167Z,90.0088
2023-04-22T06:52:13.455Z,89.7168
2023-04-22T06:53:13.772Z,89.8720
2023-04-22T06:54:14.116Z,89.8955
2023-04-22T06:55:14.390Z,89.7632
2023-04-22T06:56:14.710Z,89.4997
2023-04-22T06:57:14.997Z,89.3664
2023-04-22T06:58:15.314Z,88.8863
2023-04-22T06:59:15.609Z,88.4236
2023-04-22T07:00:16.052Z,88.6694
2023-04-22T07:01:16.369Z,88.7221
2023-04-22T07:02:17.094Z,88.5776
2023-04-22T07:03:17.957Z,88.5065
2023-04-22T07:04:18.412Z,88.1342
2023-04-22T07:05:18.795Z,87.9542
2023-04-22T07:06:19.151Z,87.8752
2023-04-22T07:07:19.477Z,87.6888
2023-04-22T07:08:19.794Z,87.2494
2023-04-22T07:09:20.142Z,87.0391
2023-04-22T07:10:20.459Z,86.6363
2023-04-22T07:11:20.798Z,86.2754
2023-04-22T07:12:21.240Z,86.8295
2023-04-22T07:13:21.624Z,87.2779
2023-04-22T07:14:21.951Z,87.2588
2023-04-22T07:15:22.324Z,86.8392
2023-04-22T07:16:22.642Z,86.2923
2023-04-22T07:17:23.185Z,86.1884
2023-04-22T07:18:23.528Z,86.0955
2023-04-22T07:19:23.887Z,85.5875
2023-04-22T07:20:24.208Z,85.1285
2023-04-22T07:21:24.744Z,85.1353
2023-04-22T07:22:25.057Z,84.5039
2023-04-22T07:23:25.424Z,85.0935
2023-04-22T07:24:25.771Z,85.2852
2023-04-22T07:25:26.075Z,84.8757
2023-04-22T07:26:26.416Z,84.4150
2023-04-22T07:27:26.734Z,84.3502
2023-04-22T07:28:27.077Z,83.9783
2023-04-22T07:29:27.369Z,83.6282
2023-04-22T07:30:27.706Z,83.3756
2023-04-22T07:31:28.109Z,83.2558
2023-04-22T07:32:28.449Z,83.5522
2023-04-22T07:33:28.800Z,83.7606
2023-04-22T07:34:29.087Z,83.8324
2023-04-22T07:35:29.416Z,83.7091
2023-04-22T07:36:29.816Z,82.8498
2023-04-22T07:37:30.118Z,82.5610
2023-04-22T07:38:30.461Z,82.5636
2023-04-22T07:39:30.779Z,82.3224
2023-04-22T07:40:31.153Z,82.2663
2023-04-22T07:41:31.528Z,81.8718
2023-04-22T07:42:31.856Z,81.4968
2023-04-22T07:43:32.236Z,81.2510
2023-04-22T07:44:32.526Z,81.2353
2023-04-22T07:45:32.902Z,81.0012
2023-04-22T07:46:33.226Z,81.0706
2023-04-22T07:47:33.627Z,81.5265
2023-04-22T07:48:33.912Z,81.7927
2023-04-22T07:49:34.284Z,81.5836
2023-04-22T07:50:38.131Z,81.8400
2023-04-22T07:51:36.705Z,81.7615
2023-04-22T07:52:37.072Z,81.6616
2023-04-22T07:53:37.389Z,81.5261
2023-04-22T07:54:37.678Z,81.0399
2023-04-22T07:55:37.967Z,81.4129
2023-04-22T07:56:38.283Z,81.3150
2023-04-22T07:57:38.751Z,81.2282
2023-04-22T07:58:39.197Z,80.7545
2023-04-22T07:59:40.163Z,80.6883
2023-04-22T08:00:40.817Z,80.4746
2023-04-22T08:01:41.242Z,80.1139
2023-04-22T08:02:41.903Z,80.3036
2023-04-22T08:03:42.834Z,80.2824
2023-04-22T08:04:43.492Z,79.6157
2023-04-22T08:05:43.829Z,79.5454
2023-04-22T08:06:44.139Z,79.7137
2023-04-22T08:07:44.424Z,79.7880
2023-04-22T08:08:44.884Z,79.6065
2023-04-22T08:09:45.157Z,79.2519
2023-04-22T08:10:45.456Z,79.3021
2023-04-22T08:11:45.850Z,78.7257
2023-04-22T08:12:46.190Z,78.0809
2023-04-22T08:13:46.586Z,79.0564
2023-04-22T08:14:46.854Z,78.4468
2023-04-22T08:15:47.134Z,77.7327
2023-04-22T08:16:47.444Z,78.4226
2023-04-22T08:17:47.881Z,78.3926
2023-04-22T08:18:48.166Z,77.1515
2023-04-22T08:19:48.465Z,77.6670
2023-04-22T08:20:48.780Z,77.6901
2023-04-22T08:21:49.095Z,77.9745
2023-04-22T08:22:49.449Z,78.2249
2023-04-22T08:23:49.739Z,78.1256
2023-04-22T08:24:50.035Z,77.8257
2023-04-22T08:25:50.372Z,77.4484
2023-04-22T08:26:50.775Z,76.5649
2023-04-22T08:27:51.061Z,76.5316
2023-04-22T08:28:51.365Z,76.7576
2023-04-22T08:29:51.632Z,76.9921
2023-04-22T08:30:51.875Z,76.8311
2023-04-22T08:31:52.257Z,76.3423
2023-04-22T08:32:52.610Z,75.8168
2023-04-22T08:33:52.947Z,76.4111
2023-04-22T08:35:04.315Z,75.1380
2023-04-22T08:35:53.366Z,74.3841
2023-04-22T08:36:53.614Z,75.1765
2023-04-22T08:37:53.936Z,75.1828
2023-04-22T08:38:54.249Z,74.8337
2023-04-22T08:39:54.596Z,73.9538
2023-04-22T08:40:54.814Z,73.8568
2023-04-22T08:41:55.165Z,73.0748
2023-04-22T08:42:55.439Z,72.4313
2023-04-22T08:43:55.832Z,71.8807
2023-04-22T08:44:56.178Z,71.5730
2023-04-22T08:45:56.421Z,71.7970
2023-04-22T08:46:57.005Z,70.6386
2023-04-22T08:47:57.563Z,70.0390
2023-04-22T08:48:57.898Z,70.1571
2023-04-22T08:49:58.213Z,69.8145
2023-04-22T08:50:58.477Z,70.0692
2023-04-22T08:51:58.843Z,69.8275
2023-04-22T08:52:59.103Z,69.9459
2023-04-22T08:53:59.359Z,70.6005
2023-04-22T08:54:59.642Z,71.5102
2023-04-22T08:55:59.883Z,71.7806
2023-04-22T08:57:00.264Z,72.0251
2023-04-22T08:58:00.617Z,71.6814
2023-04-22T08:59:00.945Z,71.3199
2023-04-22T09:00:01.448Z,72.1038
2023-04-22T09:01:01.690Z,71.7086
2023-04-22T09:02:02.119Z,71.7323
2023-04-22T09:03:02.681Z,71.5386
2023-04-22T09:04:03.233Z,71.7256
2023-04-22T09:05:03.596Z,71.7996
2023-04-22T09:06:03.892Z,72.0800
2023-04-22T09:07:04.224Z,71.6160
2023-04-22T09:08:04.456Z,71.3851
2023-04-22T09:09:04.715Z,71.6628
2023-04-22T09:10:05.026Z,71.2951
2023-04-22T09:11:05.353Z,70.7623
2023-04-22T09:12:05.652Z,70.7967
2023-04-22T09:13:05.944Z,71.0201
2023-04-22T09:14:06.313Z,70.1761
2023-04-22T09:15:06.653Z,69.9055
2023-04-22T09:16:06.902Z,69.1682
2023-04-22T09:17:07.322Z,70.2940
2023-04-22T09:18:07.562Z,70.9709
2023-04-22T09:19:07.819Z,71.2152
2023-04-22T09:20:08.123Z,71.0841
2023-04-22T09:21:08.443Z,70.6445
2023-04-22T09:22:08.760Z,69.9018
2023-04-22T09:23:09.023Z,69.0163
2023-04-22T09:24:09.312Z,69.2388
2023-04-22T09:25:09.590Z,68.5003
2023-04-22T09:26:09.835Z,68.7526
2023-04-22T09:27:10.143Z,68.6270
2023-04-22T09:28:10.544Z,67.8724
2023-04-22T09:29:10.832Z,68.5659
2023-04-22T09:30:11.364Z,68.6442
2023-04-22T09:31:11.613Z,67.3583
2023-04-22T09:32:12.030Z,67.8065
2023-04-22T09:33:12.451Z,68.3283
2023-04-22T09:34:13.661Z,67.9801
2023-04-22T09:35:13.992Z,67.6299
2023-04-22T09:36:14.239Z,67.6958
2023-04-22T09:37:14.512Z,66.7197
2023-04-22T09:38:14.763Z,65.5072
2023-04-22T09:39:15.131Z,64.8392
2023-04-22T09:40:15.373Z,64.6915
2023-04-22T09:41:15.684Z,64.5582
2023-04-22T09:42:15.976Z,63.8319
2023-04-22T09:43:16.276Z,63.3924
2023-04-22T09:44:16.777Z,62.7114
2023-04-22T09:45:17.124Z,64.3143
2023-04-22T09:46:17.403Z,65.4313
2023-04-22T09:47:17.702Z,64.4918
2023-04-22T09:48:17.954Z,63.8876
2023-04-22T09:49:18.242Z,63.3660
2023-04-22T09:50:18.471Z,63.0668
2023-04-22T09:51:18.710Z,63.4939
2023-04-22T09:52:19.040Z,62.8718
2023-04-22T09:53:19.466Z,64.1224
2023-04-22T09:54:19.733Z,63.0719
2023-04-22T09:55:19.928Z,63.5227
2023-04-22T09:56:20.212Z,63.4625
2023-04-22T09:57:20.473Z,62.9753
2023-04-22T09:58:20.695Z,62.7270
2023-04-22T09:59:20.925Z,62.3650
2023-04-22T10:00:21.126Z,61.3725
2023-04-22T10:01:21.429Z,62.5237
2023-04-22T10:02:21.823Z,63.8825
2023-04-22T10:03:22.096Z,65.0291
2023-04-22T10:04:22.478Z,64.6758
2023-04-22T10:05:22.690Z,63.5167
2023-04-22T10:06:22.900Z,63.6315
2023-04-22T10:07:23.243Z,63.0887
2023-04-22T10:08:23.441Z,62.5700
2023-04-22T10:09:23.657Z,63.0193
2023-04-22T10:10:23.984Z,63.0196
2023-04-22T10:11:24.565Z,63.6710
2023-04-22T10:12:35.470Z,63.4946
2023-04-22T10:13:25.169Z,62.9563
2023-04-22T10:14:25.388Z,62.2947
2023-04-22T10:15:27.586Z,62.2204
2023-04-22T10:16:25.511Z,61.4639
2023-04-22T10:17:25.841Z,59.9754
2023-04-22T10:18:26.087Z,59.8366
2023-04-22T10:19:26.345Z,60.8347
2023-04-22T10:20:26.598Z,61.0405
2023-04-22T10:21:26.907Z,59.8899
2023-04-22T10:22:27.200Z,61.0058
2023-04-22T10:23:27.474Z,61.9461
2023-04-22T10:24:27.772Z,61.2270
2023-04-22T10:25:28.005Z,61.0844
2023-04-22T10:26:28.363Z,61.1280
2023-04-22T10:27:28.610Z,60.0948
2023-04-22T10:28:28.861Z,60.4984
2023-04-22T10:29:29.086Z,60.0410
2023-04-22T10:30:29.342Z,60.2753
2023-04-22T10:31:29.615Z,60.5012
2023-04-22T10:32:29.985Z,61.2608
2023-04-22T10:33:30.230Z,60.5847
2023-04-22T10:34:30.427Z,60.9285
2023-04-22T10:35:30.781Z,60.5388
2023-04-22T10:36:31.031Z,59.9847
2023-04-22T10:37:33.945Z,60.6633
2023-04-22T10:38:31.757Z,59.2157
2023-04-22T10:39:32.350Z,58.8677
2023-04-22T10:40:32.770Z,59.3047
2023-04-22T10:41:33.002Z,59.8882
2023-04-22T10:42:33.331Z,59.8849
2023-04-22T10:43:33.531Z,59.2850
2023-04-22T10:44:33.760Z,58.9373
2023-04-22T10:45:34.055Z,59.9199
2023-04-22T10:46:34.379Z,60.6025
2023-04-22T10:47:34.869Z,60.6707
2023-04-22T10:48:35.080Z,60.3878
2023-04-22T10:49:35.320Z,60.2975
2023-04-22T10:50:35.564Z,60.0468
2023-04-22T10:51:35.782Z,60.1651
2023-04-22T10:52:37.002Z,60.5750
2023-04-22T10:53:37.247Z,59.8953
2023-04-22T10:54:37.544Z,60.3975
2023-04-22T10:55:37.739Z,59.9016
2023-04-22T10:56:51.736Z,59.5121
2023-04-22T10:57:38.227Z,59.4327
2023-04-22T10:58:38.409Z,59.0931
2023-04-22T10:59:39.186Z,59.2452
2023-04-22T11:00:53.581Z,60.0313
2023-04-22T11:01:40.050Z,59.3623
2023-04-22T11:02:40.505Z,58.4138
2023-04-22T11:03:41.254Z,58.4084
2023-04-22T11:04:41.538Z,58.0837
2023-04-22T11:05:41.770Z,59.0351
2023-04-22T11:06:42.045Z,57.3597
2023-04-22T11:07:42.273Z,56.8556
2023-04-22T11:08:42.507Z,56.5034
2023-04-22T11:09:42.869Z,56.1630
2023-04-22T11:10:45.337Z,56.8599
2023-04-22T11:11:43.178Z,56.0790
2023-04-22T11:12:43.435Z,56.3673
2023-04-22T11:13:43.671Z,56.7520
2023-04-22T11:14:43.890Z,55.7629
2023-04-22T11:15:44.097Z,56.0469
2023-04-22T11:16:44.523Z,55.5156
2023-04-22T11:17:44.810Z,54.6456
2023-04-22T11:18:45.010Z,54.7486
2023-04-22T11:19:45.211Z,56.4540
2023-04-22T11:20:45.410Z,54.3359
2023-04-22T11:21:45.640Z,52.9999
2023-04-22T11:22:45.892Z,51.8835
2023-04-22T11:23:46.102Z,51.7738
2023-04-22T11:24:46.348Z,50.9446
2023-04-22T11:25:46.583Z,50.7967
2023-04-22T11:26:46.826Z,50.6863
2023-04-22T11:27:47.084Z,50.3416
2023-04-22T11:28:47.298Z,50.4010
2023-04-22T11:29:47.475Z,49.5037
2023-04-22T11:30:47.793Z,48.6416
2023-04-22T11:31:47.958Z,48.0261
2023-04-22T11:32:48.260Z,48.0046
2023-04-22T11:33:50.920Z,47.6159
2023-04-22T11:34:48.826Z,47.2924
2023-04-22T11:35:49.033Z,47.0198
2023-04-22T11:36:49.210Z,46.4992
2023-04-22T11:37:49.485Z,46.2804
2023-04-22T11:38:49.763Z,47.7557
2023-04-22T11:40:13.184Z,47.9191
2023-04-22T11:40:50.096Z,48.3723
2023-04-22T11:41:50.310Z,47.0780
2023-04-22T11:42:50.493Z,47.2992
2023-04-22T11:43:50.645Z,48.7990
2023-04-22T11:44:50.856Z,47.1138
2023-04-22T11:45:51.041Z,48.5489
2023-04-22T11:46:51.238Z,49.0221
2023-04-22T11:47:51.524Z,48.6823
2023-04-22T11:48:51.626Z,48.5765
2023-04-22T11:49:51.777Z,47.9260
2023-04-22T11:50:51.920Z,48.0963
2023-04-22T11:51:52.094Z,47.1213
2023-04-22T11:52:52.289Z,46.7829
2023-04-22T11:53:52.464Z,45.7591
2023-04-22T11:54:52.715Z,44.7252
2023-04-22T11:55:52.852Z,45.5590
2023-04-22T11:56:52.974Z,46.6192
2023-04-22T11:57:53.277Z,45.4051
2023-04-22T11:58:53.421Z,45.4068
2023-04-22T11:59:53.654Z,44.3972
2023-04-22T12:00:53.757Z,43.9676
2023-04-22T12:01:53.849Z,44.5789
2023-04-22T12:02:54.171Z,44.0130
2023-04-22T12:03:54.494Z,45.4483
2023-04-22T12:04:54.584Z,46.8283
2023-04-22T12:05:54.745Z,47.2619
2023-04-22T12:06:54.894Z,45.4544
2023-04-22T12:07:55.060Z,47.3238
2023-04-22T12:08:55.155Z,47.6672
2023-04-22T12:09:55.301Z,47.6161